createdAt,value
2024-01-10T00:02:25.820Z,17.97
2024-01-10T00:04:53.143Z,18.17
2024-01-10T00:07:20.756Z,18.17
2024-01-10T00:09:48.014Z,18.83
2024-01-10T00:12:15.185Z,19.67
2024-01-10T00:14:42.099Z,19.40
2024-01-10T00:17:09.106Z,19.13
2024-01-10T00:19:35.985Z,18.40
2024-01-10T00:22:02.916Z,19.20
2024-01-10T00:24:29.871Z,17.03
2024-01-10T00:26:56.759Z,18.87
2024-01-10T00:29:23.733Z,19.20
2024-01-10T00:31:50.745Z,19.60
2024-01-10T00:34:17.595Z,19.17
2024-01-10T00:36:48.039Z,19.57
2024-01-10T00:39:16.702Z,18.23
2024-01-10T00:41:43.827Z,17.50
2024-01-10T00:44:11.022Z,16.93
2024-01-10T00:46:38.035Z,17.63
2024-01-10T00:49:28.034Z,18.90
2024-01-10T00:51:55.098Z,18.70
2024-01-10T00:54:22.056Z,18.50
2024-01-10T00:56:51.496Z,17.83
2024-01-10T00:59:18.631Z,18.70
2024-01-10T01:01:45.513Z,18.90
2024-01-10T01:04:12.757Z,17.23
2024-01-10T01:06:39.524Z,18.00
2024-01-10T01:09:06.447Z,18.43
2024-01-10T01:11:33.548Z,20.43
2024-01-10T01:14:06.463Z,17.97
2024-01-10T01:16:33.540Z,17.23
2024-01-10T01:19:00.579Z,18.50
2024-01-10T01:21:27.469Z,18.73
2024-01-10T01:23:58.320Z,18.67
2024-01-10T01:26:25.174Z,19.03
2024-01-10T01:28:52.123Z,18.57
2024-01-10T01:31:19.488Z,18.60
2024-01-10T01:33:49.709Z,18.30
2024-01-10T01:36:16.755Z,19.23
2024-01-10T01:38:43.951Z,19.23
2024-01-10T01:41:11.016Z,19.43
2024-01-10T01:43:46.514Z,21.30
2024-01-10T01:46:13.698Z,18.57
2024-01-10T01:48:41.220Z,20.30
2024-01-10T01:51:09.095Z,20.80
2024-01-10T01:53:39.886Z,22.13
2024-01-10T01:56:10.674Z,21.47
2024-01-10T01:58:38.686Z,22.00
2024-01-10T02:01:06.941Z,21.07
2024-01-10T02:03:34.293Z,22.13
2024-01-10T02:06:04.950Z,21.83
2024-01-10T02:08:34.962Z,21.27
2024-01-10T02:11:03.083Z,21.03
2024-01-10T02:13:31.171Z,20.33
2024-01-10T02:15:58.129Z,19.77
2024-01-10T02:18:25.057Z,20.90
2024-01-10T02:20:54.572Z,21.20
2024-01-10T02:23:21.493Z,20.13
2024-01-10T02:25:48.448Z,19.60
2024-01-10T02:28:15.611Z,20.97
2024-01-10T02:30:44.611Z,20.90
2024-01-10T02:33:20.503Z,20.93
2024-01-10T02:35:47.473Z,17.90
2024-01-10T02:38:14.619Z,20.73
2024-01-10T02:40:41.525Z,21.60
2024-01-10T02:43:09.275Z,22.40
2024-01-10T02:45:37.036Z,19.53
2024-01-10T02:48:04.401Z,18.40
2024-01-10T02:50:31.330Z,18.47
2024-01-10T02:52:58.499Z,17.80
2024-01-10T02:55:25.459Z,19.37
2024-01-10T02:57:52.641Z,19.33
2024-01-10T03:00:19.921Z,18.00
2024-01-10T03:02:47.082Z,20.00
2024-01-10T03:05:14.514Z,18.17
2024-01-10T03:07:41.659Z,18.77
2024-01-10T03:10:09.338Z,19.50
2024-01-10T03:12:38.781Z,19.07
2024-01-10T03:15:07.390Z,20.37
2024-01-10T03:17:35.078Z,19.27
2024-01-10T03:20:04.334Z,18.27
2024-01-10T03:22:33.713Z,19.50
2024-01-10T03:25:00.509Z,20.97
2024-01-10T03:27:27.378Z,20.70
2024-01-10T03:29:54.360Z,20.70
2024-01-10T03:32:21.458Z,19.07
2024-01-10T03:34:52.465Z,20.50
2024-01-10T03:37:19.870Z,18.60
2024-01-10T03:39:46.825Z,19.93
2024-01-10T03:42:13.724Z,18.97
2024-01-10T03:44:40.933Z,19.67
2024-01-10T03:47:07.963Z,21.77
2024-01-10T03:49:34.923Z,18.40
2024-01-10T03:52:01.973Z,19.70
2024-01-10T03:54:31.929Z,19.97
2024-01-10T03:56:58.765Z,18.33
2024-01-10T03:59:25.751Z,20.47
2024-01-10T04:01:59.065Z,19.73
2024-01-10T04:04:26.253Z,20.60
2024-01-10T04:06:53.577Z,21.33
2024-01-10T04:09:20.676Z,21.47
2024-01-10T04:11:50.812Z,22.80
2024-01-10T04:14:17.774Z,20.97
2024-01-10T04:16:44.707Z,19.53
2024-01-10T04:19:11.721Z,19.80
2024-01-10T04:21:38.847Z,21.57
2024-01-10T04:24:06.081Z,19.73
2024-01-10T04:26:33.528Z,19.47
2024-01-10T04:29:00.517Z,19.37
2024-01-10T04:31:30.192Z,22.37
2024-01-10T04:33:57.094Z,20.67
2024-01-10T04:36:24.893Z,19.10
2024-01-10T04:38:51.975Z,20.60
2024-01-10T04:41:19.306Z,21.10
2024-01-10T04:43:46.515Z,19.13
2024-01-10T04:46:13.386Z,21.13
2024-01-10T04:48:40.666Z,21.33
2024-01-10T04:51:08.455Z,19.63
2024-01-10T04:53:35.394Z,22.07
2024-01-10T04:56:02.518Z,19.07
2024-01-10T04:58:31.012Z,20.97
2024-01-10T05:00:57.936Z,21.40
2024-01-10T05:03:25.017Z,21.23
2024-01-10T05:05:52.178Z,23.17
2024-01-10T05:08:21.825Z,21.17
2024-01-10T05:10:49.152Z,21.73
2024-01-10T05:13:16.026Z,20.93
2024-01-10T05:15:42.816Z,21.30
2024-01-10T05:18:10.086Z,21.40
2024-01-10T05:20:37.391Z,19.40
2024-01-10T05:23:07.028Z,18.93
2024-01-10T05:25:34.186Z,19.67
2024-01-10T05:28:04.211Z,21.07
2024-01-10T05:30:32.129Z,18.80
2024-01-10T05:33:06.001Z,20.87
2024-01-10T05:35:33.031Z,20.00
2024-01-10T05:37:59.998Z,19.37
2024-01-10T05:40:28.810Z,21.07
2024-01-10T05:42:55.969Z,21.17
2024-01-10T05:45:22.860Z,20.90
2024-01-10T05:47:50.037Z,19.17
2024-01-10T05:50:18.330Z,18.07
2024-01-10T05:52:46.842Z,19.70
2024-01-10T05:55:16.842Z,19.43
2024-01-10T05:57:43.732Z,19.27
2024-01-10T06:00:21.202Z,19.30
2024-01-10T06:02:48.478Z,21.07
2024-01-10T06:05:15.583Z,19.77
2024-01-10T06:07:48.401Z,20.67
2024-01-10T06:10:15.759Z,21.70
2024-01-10T06:12:48.387Z,22.73
2024-01-10T06:15:16.825Z,20.63
2024-01-10T06:17:47.181Z,21.87
2024-01-10T06:20:15.372Z,22.73
2024-01-10T06:22:43.128Z,22.20
2024-01-10T06:25:10.193Z,21.30
2024-01-10T06:27:37.107Z,20.63
2024-01-10T06:30:04.474Z,20.93
2024-01-10T06:32:31.536Z,20.27
2024-01-10T06:34:58.980Z,20.10
2024-01-10T06:37:25.839Z,18.03
2024-01-10T06:39:52.947Z,21.27
2024-01-10T06:42:19.779Z,21.87
2024-01-10T06:44:47.071Z,20.93
2024-01-10T06:47:15.901Z,19.60
2024-01-10T06:49:52.104Z,18.80
2024-01-10T06:52:18.994Z,19.10
2024-01-10T06:54:45.882Z,17.73
2024-01-10T06:57:12.820Z,20.80
2024-01-10T06:59:39.957Z,20.10
2024-01-10T07:02:07.098Z,20.73
2024-01-10T07:04:34.194Z,17.53
2024-01-10T07:07:01.805Z,20.00
2024-01-10T07:09:29.035Z,20.63
2024-01-10T07:11:55.949Z,21.73
2024-01-10T07:14:23.033Z,20.07
2024-01-10T07:16:50.377Z,19.67
2024-01-10T07:19:18.592Z,18.83
2024-01-10T07:21:45.587Z,20.97
2024-01-10T07:24:17.328Z,18.83
2024-01-10T07:26:44.221Z,20.70
2024-01-10T07:29:11.044Z,17.90
2024-01-10T07:31:38.148Z,19.47
2024-01-10T07:34:06.636Z,20.20
2024-01-10T07:36:37.490Z,19.40
2024-01-10T07:39:04.950Z,19.50
2024-01-10T07:41:32.352Z,20.37
2024-01-10T07:43:59.403Z,20.23
2024-01-10T07:46:28.358Z,19.80
2024-01-10T07:48:55.713Z,19.60
2024-01-10T07:51:23.032Z,21.50
2024-01-10T07:53:50.000Z,20.27
2024-01-10T07:56:17.292Z,20.47
2024-01-10T07:58:44.412Z,21.37
2024-01-10T08:01:12.467Z,23.70
2024-01-10T08:03:40.780Z,23.43
2024-01-10T08:06:15.047Z,22.43
2024-01-10T08:08:47.718Z,29.10
2024-01-10T08:11:14.930Z,26.40
2024-01-10T08:13:41.764Z,23.73
2024-01-10T08:16:09.943Z,21.03
2024-01-10T08:18:37.157Z,21.63
2024-01-10T08:21:05.381Z,22.37
2024-01-10T08:23:32.604Z,21.00
2024-01-10T08:25:59.646Z,18.93
2024-01-10T08:28:29.955Z,19.30
2024-01-10T08:33:48.537Z,19.73
2024-01-10T08:36:15.868Z,21.47
2024-01-10T08:38:43.889Z,21.10
2024-01-10T08:41:13.365Z,19.67
2024-01-10T08:43:40.881Z,20.83
2024-01-10T08:46:08.052Z,23.90
2024-01-10T08:48:35.854Z,23.07
2024-01-10T08:51:03.127Z,23.40
2024-01-10T08:53:30.163Z,21.27
2024-01-10T08:56:08.943Z,23.57
2024-01-10T08:58:44.686Z,24.80
2024-01-10T09:01:15.565Z,21.20
2024-01-10T09:03:42.534Z,20.83
2024-01-10T09:06:11.850Z,25.17
2024-01-10T09:08:40.724Z,26.10
2024-01-10T09:11:08.090Z,20.80
2024-01-10T09:13:35.710Z,21.90
2024-01-10T09:16:02.585Z,19.73
2024-01-10T09:18:30.016Z,20.47
2024-01-10T09:20:57.762Z,20.67
2024-01-10T09:23:25.270Z,23.30
2024-01-10T09:25:52.730Z,26.00
2024-01-10T09:28:38.648Z,22.37
2024-01-10T09:31:08.520Z,22.60
2024-01-10T09:33:35.808Z,21.13
2024-01-10T09:36:02.953Z,20.80
2024-01-10T09:38:30.473Z,20.77
2024-01-10T09:41:06.552Z,22.00
2024-01-10T09:43:37.135Z,24.83
2024-01-10T09:46:06.155Z,21.30
2024-01-10T09:48:33.904Z,21.30
2024-01-10T09:51:01.304Z,27.07
2024-01-10T09:53:31.458Z,23.83
2024-01-10T09:56:09.465Z,20.67
2024-01-10T09:58:40.999Z,20.13
2024-01-10T10:01:08.158Z,22.60
2024-01-10T10:03:39.318Z,23.67
2024-01-10T10:06:07.650Z,24.03
2024-01-10T10:08:39.535Z,24.03
2024-01-10T10:11:06.622Z,22.40
2024-01-10T10:13:34.653Z,21.07
2024-01-10T10:16:06.921Z,21.63
2024-01-10T10:18:34.320Z,20.83
2024-01-10T10:21:15.019Z,21.50
2024-01-10T10:23:47.320Z,21.13
2024-01-10T10:26:21.406Z,22.07
2024-01-10T10:28:49.735Z,21.23
2024-01-10T10:31:20.950Z,24.00
2024-01-10T10:33:54.096Z,23.47
2024-01-10T10:36:23.991Z,21.53
2024-01-10T10:38:50.896Z,22.93
2024-01-10T10:41:19.956Z,23.93
2024-01-10T10:46:33.347Z,24.40
2024-01-10T10:49:06.625Z,22.67
2024-01-10T10:51:38.263Z,27.13
2024-01-10T10:54:10.371Z,25.77
2024-01-10T10:56:38.451Z,24.53
2024-01-10T10:59:08.239Z,24.60
2024-01-10T11:01:35.824Z,24.90
2024-01-10T11:04:03.122Z,26.97
2024-01-10T11:06:31.472Z,25.57
2024-01-10T11:09:07.916Z,23.73
2024-01-10T11:11:43.819Z,23.23
2024-01-10T11:14:41.020Z,25.23
2024-01-10T11:17:15.924Z,24.23
2024-01-10T11:20:20.392Z,23.00
2024-01-10T11:23:33.308Z,24.90
2024-01-10T11:26:01.005Z,25.57
2024-01-10T11:28:28.912Z,23.97
2024-01-10T11:30:58.103Z,23.63
2024-01-10T11:33:34.110Z,24.50
2024-01-10T11:36:30.802Z,25.13
2024-01-10T11:39:05.810Z,25.73
2024-01-10T11:41:36.164Z,26.60
2024-01-10T11:44:35.301Z,25.90
2024-01-10T11:47:05.081Z,27.50
2024-01-10T11:49:37.432Z,26.40
2024-01-10T11:52:05.014Z,28.27
2024-01-10T11:54:46.481Z,27.63
2024-01-10T11:57:35.878Z,27.33
2024-01-10T12:00:06.757Z,24.53
2024-01-10T12:02:34.659Z,25.17
2024-01-10T12:05:02.956Z,25.70
2024-01-10T12:07:30.368Z,26.23
2024-01-10T12:09:58.015Z,24.97
2024-01-10T12:12:25.184Z,24.40
2024-01-10T12:14:53.001Z,25.30
2024-01-10T12:17:20.646Z,23.03
2024-01-10T12:19:49.827Z,27.00
2024-01-10T12:22:20.715Z,25.67
2024-01-10T12:24:53.746Z,26.63
2024-01-10T12:27:22.337Z,23.27
2024-01-10T12:29:52.480Z,27.17
2024-01-10T12:32:22.089Z,27.13
2024-01-10T12:34:49.457Z,28.53
2024-01-10T12:37:21.724Z,31.00
2024-01-10T12:39:51.515Z,26.00
2024-01-10T12:42:18.745Z,26.63
2024-01-10T12:44:47.826Z,24.20
2024-01-10T12:47:22.298Z,26.50
2024-01-10T12:49:50.173Z,25.90
2024-01-10T12:52:19.626Z,25.27
2024-01-10T12:54:49.637Z,25.70
2024-01-10T12:57:16.579Z,25.77
2024-01-10T12:59:43.632Z,24.00
2024-01-10T13:02:10.655Z,26.43
2024-01-10T13:04:37.877Z,25.27
2024-01-10T13:07:04.946Z,24.80
2024-01-10T13:09:32.107Z,25.93
2024-01-10T13:11:59.861Z,27.63
2024-01-10T13:14:29.608Z,23.77
2024-01-10T13:16:59.842Z,25.53
2024-01-10T13:19:28.008Z,26.57
2024-01-10T13:21:55.395Z,28.60
2024-01-10T13:24:22.485Z,27.97
2024-01-10T13:26:50.095Z,24.40
2024-01-10T13:29:17.580Z,25.10
2024-01-10T13:31:53.667Z,25.10
2024-01-10T13:34:21.254Z,22.70
2024-01-10T13:36:48.756Z,24.30
2024-01-10T13:39:16.698Z,25.60
2024-01-10T13:41:46.408Z,24.43
2024-01-10T13:44:18.398Z,23.97
2024-01-10T13:46:51.065Z,30.17
2024-01-10T13:49:18.199Z,28.17
2024-01-10T13:51:46.130Z,24.90
2024-01-10T13:56:56.948Z,24.60
2024-01-10T13:59:26.730Z,25.00
2024-01-10T14:01:53.747Z,25.53
2024-01-10T14:04:20.689Z,24.90
2024-01-10T14:06:47.688Z,24.80
2024-01-10T14:09:17.416Z,25.93
2024-01-10T14:11:45.770Z,23.70
2024-01-10T14:14:12.948Z,24.57
2024-01-10T14:16:40.040Z,25.10
2024-01-10T14:19:10.045Z,24.17
2024-01-10T14:24:18.492Z,23.77
2024-01-10T14:26:48.530Z,24.33
2024-01-10T14:29:15.852Z,24.00
2024-01-10T14:31:57.013Z,23.43
2024-01-10T14:34:30.655Z,26.33
2024-01-10T14:36:57.868Z,24.63
2024-01-10T14:39:24.960Z,23.17
2024-01-10T14:41:51.994Z,23.37
2024-01-10T14:44:19.232Z,24.37
2024-01-10T14:46:53.235Z,23.00
2024-01-10T14:49:27.851Z,23.03
2024-01-10T14:51:55.021Z,22.67
2024-01-10T14:54:31.726Z,23.57
2024-01-10T14:56:58.626Z,24.07
2024-01-10T14:59:36.721Z,23.40
2024-01-10T15:02:11.154Z,23.23
2024-01-10T15:04:41.580Z,25.07
2024-01-10T15:07:14.073Z,24.93
2024-01-10T15:09:46.354Z,23.57
2024-01-10T15:12:16.239Z,24.30
2024-01-10T15:14:54.836Z,21.97
2024-01-10T15:17:33.702Z,23.00
2024-01-10T15:20:07.214Z,23.67
2024-01-10T15:22:37.267Z,22.63
2024-01-10T15:25:05.078Z,24.53
2024-01-10T15:27:38.964Z,23.53
2024-01-10T15:30:15.260Z,23.00
2024-01-10T15:32:45.163Z,23.03
2024-01-10T15:35:12.445Z,23.87
2024-01-10T15:37:39.395Z,25.57
2024-01-10T15:40:13.056Z,26.80
2024-01-10T15:42:40.313Z,24.73
2024-01-10T15:45:11.246Z,24.67
2024-01-10T15:47:39.601Z,23.40
2024-01-10T15:50:11.169Z,25.47
2024-01-10T15:52:38.778Z,26.63
2024-01-10T15:55:17.298Z,27.10
2024-01-10T15:57:50.463Z,28.87
2024-01-10T16:00:18.102Z,27.60
2024-01-10T16:02:45.262Z,28.17
2024-01-10T16:05:12.170Z,26.23
2024-01-10T16:07:39.687Z,29.17
2024-01-10T16:10:07.637Z,31.63
2024-01-10T16:12:37.569Z,31.00
2024-01-10T16:15:04.892Z,30.43
2024-01-10T16:20:13.220Z,26.00
2024-01-10T16:22:41.210Z,24.27
2024-01-10T16:25:11.217Z,24.73
2024-01-10T16:27:38.866Z,23.97
2024-01-10T16:30:06.506Z,21.87
2024-01-10T16:32:47.025Z,20.87
2024-01-10T16:35:16.253Z,21.63
2024-01-10T16:37:43.301Z,22.20
2024-01-10T16:40:10.995Z,21.93
2024-01-10T16:42:37.897Z,20.70
2024-01-10T16:45:07.782Z,20.87
2024-01-10T16:47:35.234Z,22.13
2024-01-10T16:50:03.237Z,28.43
2024-01-10T16:52:30.483Z,27.67
2024-01-10T16:54:57.598Z,26.80
2024-01-10T16:57:24.902Z,23.80
2024-01-10T16:59:54.593Z,30.87
2024-01-10T17:02:24.109Z,23.33
2024-01-10T17:04:53.809Z,21.57
2024-01-10T17:07:20.770Z,20.90
2024-01-10T17:09:50.063Z,21.23
2024-01-10T17:12:17.250Z,19.73
2024-01-10T17:14:44.416Z,20.93
2024-01-10T17:17:11.359Z,22.33
2024-01-10T17:19:41.090Z,23.47
2024-01-10T17:22:11.267Z,20.97
2024-01-10T17:24:38.282Z,19.93
2024-01-10T17:27:05.736Z,22.70
2024-01-10T17:29:35.006Z,22.37
2024-01-10T17:32:12.619Z,23.03
2024-01-10T17:34:39.950Z,23.33
2024-01-10T17:37:07.028Z,23.80
2024-01-10T17:39:34.280Z,20.60
2024-01-10T17:42:04.233Z,23.50
2024-01-10T17:44:32.961Z,24.67
2024-01-10T17:46:59.958Z,24.37
2024-01-10T17:49:29.547Z,23.03
2024-01-10T17:51:56.476Z,22.83
2024-01-10T17:54:26.064Z,23.43
2024-01-10T17:56:52.885Z,25.23
2024-01-10T17:59:25.566Z,22.47
2024-01-10T18:01:52.963Z,21.47
2024-01-10T18:04:26.105Z,20.00
2024-01-10T18:06:53.446Z,21.00
2024-01-10T18:09:24.006Z,20.37
2024-01-10T18:11:52.447Z,20.63
2024-01-10T18:14:22.386Z,20.13
2024-01-10T18:16:50.770Z,19.90
2024-01-10T18:19:21.147Z,20.13
2024-01-10T18:21:54.780Z,21.13
2024-01-10T18:24:22.119Z,21.10
2024-01-10T18:26:52.286Z,23.03
2024-01-10T18:29:19.337Z,19.90
2024-01-10T18:31:47.511Z,19.63
2024-01-10T18:34:17.821Z,21.87
2024-01-10T18:36:45.096Z,18.53
2024-01-10T18:39:14.277Z,19.37
2024-01-10T18:41:42.254Z,20.27
2024-01-10T18:44:09.419Z,19.80
2024-01-10T18:46:37.716Z,21.90
2024-01-10T18:49:06.849Z,20.97
2024-01-10T18:51:36.747Z,19.90
2024-01-10T18:54:03.731Z,21.17
2024-01-10T18:56:31.254Z,21.37
2024-01-10T18:58:58.340Z,20.73
2024-01-10T19:01:25.680Z,17.60
2024-01-10T19:03:52.980Z,18.40
2024-01-10T19:06:20.144Z,18.90
2024-01-10T19:08:47.111Z,18.77
2024-01-10T19:11:21.851Z,17.60
2024-01-10T19:14:00.141Z,18.43
2024-01-10T19:16:27.561Z,17.80
2024-01-10T19:19:03.213Z,19.63
2024-01-10T19:21:30.399Z,18.70
2024-01-10T19:23:57.682Z,18.37
2024-01-10T19:26:29.274Z,19.87
2024-01-10T19:28:59.652Z,19.90
2024-01-10T19:31:26.766Z,19.77
2024-01-10T19:33:58.965Z,18.23
2024-01-10T19:36:28.045Z,19.73
2024-01-10T19:38:56.284Z,17.53
2024-01-10T19:41:24.825Z,18.57
2024-01-10T19:44:12.862Z,17.77
2024-01-10T19:46:40.055Z,18.77
2024-01-10T19:49:16.259Z,20.77
2024-01-10T19:51:45.764Z,25.47
2024-01-10T19:54:13.200Z,27.53
2024-01-10T19:59:21.127Z,25.90
2024-01-10T20:01:48.146Z,28.73
2024-01-10T20:04:15.155Z,23.87
2024-01-10T20:06:42.180Z,32.77
2024-01-10T20:09:11.027Z,20.60
2024-01-10T20:11:38.516Z,20.23
2024-01-10T20:14:05.647Z,19.73
2024-01-10T20:16:32.448Z,19.63
2024-01-10T20:19:00.189Z,19.47
2024-01-10T20:21:28.040Z,18.53
2024-01-10T20:23:55.028Z,19.33
2024-01-10T20:26:21.982Z,20.63
2024-01-10T20:28:49.080Z,16.80
2024-01-10T20:31:25.297Z,21.10
2024-01-10T20:33:52.474Z,17.63
2024-01-10T20:36:19.756Z,16.60
2024-01-10T20:38:46.761Z,17.60
2024-01-10T20:41:13.755Z,17.10
2024-01-10T20:43:40.791Z,19.00
2024-01-10T20:46:07.837Z,17.70
2024-01-10T20:48:34.992Z,18.20
2024-01-10T20:51:01.868Z,18.90
2024-01-10T20:53:44.257Z,18.23
2024-01-10T20:56:13.330Z,18.77
2024-01-10T20:58:49.730Z,20.23
2024-01-10T21:01:19.237Z,19.93
2024-01-10T21:03:49.796Z,20.10
2024-01-10T21:06:20.699Z,19.17
2024-01-10T21:08:53.425Z,19.07
2024-01-10T21:11:26.693Z,20.13
2024-01-10T21:13:54.030Z,19.77
2024-01-10T21:16:21.298Z,19.10
2024-01-10T21:18:51.368Z,20.70
2024-01-10T21:21:18.644Z,20.07
2024-01-10T21:23:48.215Z,18.90
2024-01-10T21:26:15.114Z,19.93
2024-01-10T21:28:42.151Z,16.97
2024-01-10T21:31:15.051Z,20.63
2024-01-10T21:33:44.162Z,21.20
2024-01-10T21:36:11.192Z,21.47
2024-01-10T21:38:38.255Z,20.07
2024-01-10T21:41:05.581Z,21.57
2024-01-10T21:43:33.028Z,20.70
2024-01-10T21:45:59.975Z,18.67
2024-01-10T21:48:27.002Z,18.03
2024-01-10T21:50:54.092Z,19.10
2024-01-10T21:53:21.119Z,22.50
2024-01-10T21:55:48.171Z,21.67
2024-01-10T21:58:15.964Z,18.73
2024-01-10T22:00:43.315Z,20.30
2024-01-10T22:03:18.558Z,20.27
2024-01-10T22:05:53.799Z,19.80
2024-01-10T22:08:20.921Z,19.43
2024-01-10T22:10:47.898Z,20.20
2024-01-10T22:13:18.108Z,20.20
2024-01-10T22:15:45.309Z,18.47
2024-01-10T22:18:15.496Z,17.77
2024-01-10T22:20:42.595Z,18.17
2024-01-10T22:23:09.743Z,19.47
2024-01-10T22:25:44.248Z,16.70
2024-01-10T22:28:14.566Z,16.60
2024-01-10T22:30:41.451Z,15.47
2024-01-10T22:33:08.725Z,16.00
2024-01-10T22:35:35.733Z,14.67
2024-01-10T22:38:02.958Z,16.97
2024-01-10T22:40:30.805Z,16.77
2024-01-10T22:42:57.801Z,16.87
2024-01-10T22:45:25.028Z,18.27
2024-01-10T22:47:52.343Z,16.90
2024-01-10T22:50:19.501Z,15.90
2024-01-10T22:52:46.708Z,16.30
2024-01-10T22:55:13.809Z,17.43
2024-01-10T22:57:42.202Z,17.33
2024-01-10T23:00:12.103Z,17.00
2024-01-10T23:02:41.546Z,18.30
2024-01-10T23:05:09.071Z,17.40
2024-01-10T23:07:36.306Z,18.73
2024-01-10T23:10:06.006Z,19.27
2024-01-10T23:12:32.884Z,18.67
2024-01-10T23:14:59.993Z,19.17
2024-01-10T23:17:27.464Z,18.30
2024-01-10T23:20:04.902Z,18.00
2024-01-10T23:22:31.958Z,17.23
2024-01-10T23:24:58.801Z,21.93
2024-01-10T23:27:25.670Z,14.77
2024-01-10T23:32:38.565Z,15.17
2024-01-10T23:35:09.048Z,15.00
2024-01-10T23:37:42.840Z,15.30
2024-01-10T23:40:17.044Z,14.07
2024-01-10T23:42:44.218Z,12.63
2024-01-10T23:45:11.941Z,11.70
2024-01-10T23:47:39.130Z,11.20
2024-01-10T23:50:07.449Z,13.30
2024-01-10T23:52:44.161Z,14.60
2024-01-10T23:55:11.026Z,11.40
2024-01-10T23:57:38.014Z,10.97
